Terminal Aerodrome Forecast
Issued by NWS Charleston, WV

Current Version | Previous Version | Graphics & Text | Print | Product List | Glossary On
Versions: 1 2 3 4 5 6 7 8 9 10 11 12 13 14 15 16 17 18 19 20 21 22 23 24 25 26
000
FTUS41 KRLX 252300
TAFHTS
TAF
KHTS 252324Z 2600/2624 VRB03KT 6SM -RA BR BKN070 OVC100
     FM260100 VRB03KT 4SM -RA BR SCT025 OVC040
     FM260500 VRB03KT 3SM -RASNPL BR SCT015 OVC030
     FM260700 05004KT 2SM -SNPL BR OVC010
     FM261100 34006KT 2SM -SN BR OVC004
     FM261400 33007KT 3SM BR OVC008=

USA.gov is the U.S. government's official web portal to all federal, state and local government web resources and services.